Time;durP1;ratioP1;P1;durP2;ratioP2;P2;SDS_P1;SDS_P2;PMS_P1;PMS_P2;Temp;Humidity;BMP_temperature;BMP_pressure;BME280_temperature;BME280_humidity;BME280_pressure;Samples;Min_cycle;Max_cycle;Signal;HPM_P1;HPM_P2
2022/01/10 00:02:23;;;;;;;;;;;3.90;99.90;;;;;;5033519;28;20054;-76
2022/01/10 00:04:48;;;;;;;;;;;3.90;99.90;;;;;;5032140;28;19999;-73
2022/01/10 00:07:14;;;;;;;;;;;4.00;99.90;;;;;;5032452;28;19978;-78
2022/01/10 00:09:39;;;;;;;;;;;4.00;99.90;;;;;;5036250;28;20087;-78
2022/01/10 00:12:05;;;;;;;;;;;4.00;99.90;;;;;;5037013;28;20490;-78
2022/01/10 00:14:31;;;;;;;;;;;3.90;99.90;;;;;;5037391;28;19920;-78
2022/01/10 00:16:56;;;;;;;;;;;3.90;99.90;;;;;;5037716;28;19943;-77
2022/01/10 00:19:22;;;;;;;;;;;3.90;99.90;;;;;;5037286;28;20288;-74
2022/01/10 00:21:48;;;;;;;;;;;4.00;99.90;;;;;;5037360;28;20075;-78
2022/01/10 00:24:14;;;;;;;;;;;4.00;99.90;;;;;;5035759;28;20392;-79
2022/01/10 00:26:39;;;;;;;;;;;4.00;99.90;;;;;;5035621;28;19914;-79
2022/01/10 00:29:05;;;;;;;;;;;;;;;;;;5036884;28;20321;-79
2022/01/10 00:31:31;;;;;;;;;;;;;;;;;;5035882;28;20364;-73
2022/01/10 00:33:57;;;;;;;;;;;;;;;;;;5036902;28;19970;-79
2022/01/10 00:36:25;;;;;;;;;;;;;;;;;;5037096;28;19999;-73
2022/01/10 00:38:51;;;;;;;;;;;;;;;;;;5036987;28;19913;-79
2022/01/10 00:41:16;;;;;;;;;;;4.00;99.90;;;;;;5036940;28;20284;-79
2022/01/10 00:43:46;;;;;;;;;;;4.30;99.90;;;;;;5036929;28;20685;-79
2022/01/10 00:46:11;;;;;;;;;;;4.30;99.90;;;;;;5036952;28;19913;-79
2022/01/10 00:48:37;;;;;;;;;;;4.30;99.90;;;;;;5036651;28;19917;-79
2022/01/10 00:51:03;;;;;;;;;;;4.20;99.90;;;;;;5036774;28;19924;-79
2022/01/10 00:53:28;;;;;;;;;;;4.10;99.90;;;;;;5036696;28;19959;-79
2022/01/10 00:55:54;;;;;;;;;;;4.10;99.90;;;;;;5035634;28;19917;-78
2022/01/10 00:58:20;;;;;;;;;;;4.20;99.90;;;;;;5036657;28;19920;-78
2022/01/10 01:00:46;;;;;;;;;;;3.90;99.90;;;;;;5035246;28;19924;-79
2022/01/10 01:03:11;;;;;;;;;;;4.10;99.90;;;;;;5035088;28;19920;-79
2022/01/10 01:05:41;;;;;;;;;;;;;;;;;;5035238;28;20000;-79
2022/01/10 01:08:09;;;;;;;;;;;;;;;;;;5035275;28;19920;-79
2022/01/10 01:13:19;;;;;;;;;;;4.10;99.90;;;;;;5036502;28;19913;-79
2022/01/10 01:16:42;;;;;;;;;;;4.10;99.90;;;;;;5036389;28;19921;-74
2022/01/10 01:24:06;;;;;;;;;;;4.20;99.90;;;;;;5035960;28;19937;-78
2022/01/10 01:26:51;;;;;;;;;;;4.00;99.90;;;;;;5034605;28;19913;-80
2022/01/10 01:29:18;;;;;;;;;;;4.20;99.90;;;;;;5034602;28;19987;-79
2022/01/10 01:31:44;;;;;;;;;;;4.20;99.90;;;;;;5034449;28;19917;-80
2022/01/10 01:34:11;;;;;;;;;;;4.30;99.90;;;;;;5034812;28;19917;-74
2022/01/10 01:36:37;;;;;;;;;;;3.90;99.90;;;;;;5036002;28;19920;-79
2022/01/10 01:39:10;;;;;;;;;;;4.20;99.90;;;;;;5034862;28;19913;-80
2022/01/10 01:41:40;;;;;;;;;;;4.20;99.90;;;;;;5035506;28;19917;-73
2022/01/10 01:44:06;;;;;;;;;;;;;;;;;;5035781;28;19917;-77
2022/01/10 01:46:36;;;;;;;;;;;4.70;99.90;;;;;;5035905;28;19913;-79
2022/01/10 01:49:02;;;;;;;;;;;3.70;99.90;;;;;;5035549;28;19917;-78
2022/01/10 01:51:28;;;;;;;;;;;3.60;99.90;;;;;;5034475;28;19948;-79
2022/01/10 01:53:53;;;;;;;;;;;3.60;99.90;;;;;;5035910;28;20431;-79
2022/01/10 01:56:19;;;;;;;;;;;3.70;99.90;;;;;;5034320;28;19913;-79
2022/01/10 01:58:46;;;;;;;;;;;3.70;99.90;;;;;;5034450;28;20005;-79
2022/01/10 02:01:16;;;;;;;;;;;3.80;99.90;;;;;;5035641;28;20004;-76
2022/01/10 02:03:42;;;;;;;;;;;3.60;99.90;;;;;;5034126;28;19975;-78
2022/01/10 02:06:07;;;;;;;;;;;3.70;99.90;;;;;;5033807;28;19917;-79
2022/01/10 02:08:33;;;;;;;;;;;3.60;99.90;;;;;;5035252;28;19920;-78
2022/01/10 02:10:59;;;;;;;;;;;3.60;99.90;;;;;;5035144;28;19917;-78
2022/01/10 02:13:26;;;;;;;;;;;3.60;99.90;;;;;;5035270;28;19919;-78
2022/01/10 02:16:01;;;;;;;;;;;3.60;99.90;;;;;;5035296;28;19996;-75
2022/01/10 02:18:27;;;;;;;;;;;3.50;99.90;;;;;;5035085;28;19913;-75
2022/01/10 02:20:53;;;;;;;;;;;3.50;99.90;;;;;;5035021;28;19920;-78
2022/01/10 02:23:19;;;;;;;;;;;3.40;99.90;;;;;;5033343;28;19913;-78
2022/01/10 02:25:46;;;;;;;;;;;3.40;99.90;;;;;;5033642;28;20257;-78
2022/01/10 02:28:13;;;;;;;;;;;3.50;99.90;;;;;;5033556;28;19957;-77
2022/01/10 02:30:38;;;;;;;;;;;3.50;99.90;;;;;;5033190;28;19992;-78
2022/01/10 02:33:04;;;;;;;;;;;3.50;99.90;;;;;;5033290;28;19919;-78
2022/01/10 02:35:38;;;;;;;;;;;3.40;99.90;;;;;;5033893;28;19913;-78
2022/01/10 02:38:04;;;;;;;;;;;3.50;99.90;;;;;;5034811;28;19913;-78
2022/01/10 02:40:31;;;;;;;;;;;3.50;99.90;;;;;;5033388;28;20008;-78
2022/01/10 02:42:57;;;;;;;;;;;3.40;99.90;;;;;;5034723;28;20527;-77
2022/01/10 02:45:23;;;;;;;;;;;3.40;99.90;;;;;;5034655;28;19977;-78
2022/01/10 02:47:49;;;;;;;;;;;3.40;99.90;;;;;;5034604;28;19917;-78
2022/01/10 02:50:15;;;;;;;;;;;3.30;99.90;;;;;;5034428;28;19928;-78
2022/01/10 02:52:41;;;;;;;;;;;3.40;99.90;;;;;;5033160;28;20352;-78
2022/01/10 02:55:08;;;;;;;;;;;3.40;99.90;;;;;;5034544;28;19913;-78
2022/01/10 02:57:34;;;;;;;;;;;3.40;99.90;;;;;;5033154;28;19913;-77
2022/01/10 03:00:02;;;;;;;;;;;3.40;99.90;;;;;;5034271;28;19919;-77
2022/01/10 03:02:32;;;;;;;;;;;3.40;99.90;;;;;;5034384;28;20334;-77
2022/01/10 03:04:57;;;;;;;;;;;3.40;99.90;;;;;;5034295;28;20028;-77
2022/01/10 03:07:24;;;;;;;;;;;3.30;99.90;;;;;;5032065;28;19999;-75
2022/01/10 03:09:52;;;;;;;;;;;3.30;99.90;;;;;;5031601;28;19921;-78
2022/01/10 03:12:18;;;;;;;;;;;3.30;99.90;;;;;;5031045;28;19924;-75
2022/01/10 03:14:44;;;;;;;;;;;3.40;99.90;;;;;;5032886;28;20428;-78
2022/01/10 03:17:10;;;;;;;;;;;3.30;99.90;;;;;;5033105;28;19955;-78
2022/01/10 03:19:36;;;;;;;;;;;3.40;99.90;;;;;;5034416;28;19917;-78
2022/01/10 03:22:02;;;;;;;;;;;3.40;99.90;;;;;;5034101;28;20376;-78
2022/01/10 03:24:28;;;;;;;;;;;3.40;99.90;;;;;;5032756;28;19913;-78
2022/01/10 03:26:53;;;;;;;;;;;3.40;99.90;;;;;;5032388;28;19917;-77
2022/01/10 03:29:19;;;;;;;;;;;3.40;99.90;;;;;;5032395;28;19923;-78
2022/01/10 03:31:45;;;;;;;;;;;3.40;99.90;;;;;;5033694;28;20003;-78
2022/01/10 03:34:13;;;;;;;;;;;3.40;99.90;;;;;;5033673;28;20443;-78
2022/01/10 03:36:39;;;;;;;;;;;3.40;99.90;;;;;;5032692;28;19986;-78
2022/01/10 03:39:05;;;;;;;;;;;3.40;99.90;;;;;;5032395;28;19917;-78
2022/01/10 03:41:30;;;;;;;;;;;3.40;99.90;;;;;;5033671;28;19959;-78
2022/01/10 03:43:56;;;;;;;;;;;3.40;99.90;;;;;;5031613;28;19958;-78
2022/01/10 03:46:21;;;;;;;;;;;3.40;99.90;;;;;;5033338;28;20070;-78
2022/01/10 03:48:47;;;;;;;;;;;3.40;99.90;;;;;;5032280;28;19913;-78
2022/01/10 03:51:13;;;;;;;;;;;3.40;99.90;;;;;;5033580;28;19924;-78
2022/01/10 03:53:38;;;;;;;;;;;3.40;99.90;;;;;;5032335;28;19917;-78
2022/01/10 03:56:04;;;;;;;;;;;3.40;99.90;;;;;;5033392;28;19921;-78
2022/01/10 03:58:30;;;;;;;;;;;3.40;99.90;;;;;;5033199;28;20287;-75
2022/01/10 04:00:56;;;;;;;;;;;3.40;99.90;;;;;;5033569;28;20415;-73
2022/01/10 04:03:22;;;;;;;;;;;3.40;99.90;;;;;;5033520;28;19913;-78
2022/01/10 04:05:48;;;;;;;;;;;3.40;99.90;;;;;;5033593;28;20276;-78
2022/01/10 04:08:14;;;;;;;;;;;3.40;99.90;;;;;;5033496;28;19914;-78
2022/01/10 04:10:39;;;;;;;;;;;3.40;99.90;;;;;;5033205;28;19921;-78
2022/01/10 04:13:05;;;;;;;;;;;3.40;99.90;;;;;;5033378;28;19921;-78
2022/01/10 04:15:31;;;;;;;;;;;3.40;99.90;;;;;;5031824;28;19917;-74
2022/01/10 04:17:59;;;;;;;;;;;3.40;99.90;;;;;;5033428;28;19913;-77
2022/01/10 04:20:25;;;;;;;;;;;3.40;99.90;;;;;;5033201;28;19917;-78
2022/01/10 04:22:51;;;;;;;;;;;3.40;99.90;;;;;;5033223;28;19924;-75
2022/01/10 04:25:17;;;;;;;;;;;3.40;99.90;;;;;;5033337;28;20300;-78
2022/01/10 04:27:43;;;;;;;;;;;3.30;99.90;;;;;;5032072;28;19995;-78
2022/01/10 04:30:10;;;;;;;;;;;3.30;99.90;;;;;;5032359;28;20012;-78
2022/01/10 04:32:36;;;;;;;;;;;3.20;99.90;;;;;;5033001;28;19913;-78
2022/01/10 04:35:02;;;;;;;;;;;3.20;99.90;;;;;;5032172;28;20306;-78
2022/01/10 04:37:27;;;;;;;;;;;3.10;99.90;;;;;;5033204;28;20399;-77
2022/01/10 04:39:53;;;;;;;;;;;3.10;99.90;;;;;;5033183;28;19919;-78
2022/01/10 04:42:18;;;;;;;;;;;3.00;99.90;;;;;;5048088;28;20056;-77
2022/01/10 04:44:44;;;;;;;;;;;3.00;99.90;;;;;;5031880;28;19945;-77
2022/01/10 04:47:10;;;;;;;;;;;3.00;99.90;;;;;;5033148;28;19920;-77
2022/01/10 04:50:03;;;;;;;;;;;3.00;99.90;;;;;;5032980;28;19925;-77
2022/01/10 04:52:21;;;;;;;;;;;3.00;99.90;;;;;;5032749;28;19936;-77
2022/01/10 04:54:47;;;;;;;;;;;2.90;99.90;;;;;;5034707;28;19917;-74
2022/01/10 04:57:12;;;;;;;;;;;2.80;99.90;;;;;;5036799;28;19913;-77
2022/01/10 04:59:38;;;;;;;;;;;2.70;99.90;;;;;;5036666;28;20007;-77
2022/01/10 05:02:03;;;;;;;;;;;2.70;99.90;;;;;;5035347;28;20281;-77
2022/01/10 05:04:29;;;;;;;;;;;2.70;99.90;;;;;;5036419;28;19913;-77
2022/01/10 05:06:55;;;;;;;;;;;2.70;99.90;;;;;;5036308;28;20406;-77
2022/01/10 05:09:20;;;;;;;;;;;2.60;99.90;;;;;;5034423;28;19921;-77
2022/01/10 05:11:46;;;;;;;;;;;2.60;99.90;;;;;;5036303;28;19917;-77
2022/01/10 05:14:12;;;;;;;;;;;2.60;99.90;;;;;;5036395;28;19917;-77
2022/01/10 05:16:40;;;;;;;;;;;2.60;99.90;;;;;;5035066;28;20376;-75
2022/01/10 05:19:06;;;;;;;;;;;2.60;99.90;;;;;;5036454;28;19917;-77
2022/01/10 05:21:32;;;;;;;;;;;2.60;99.90;;;;;;5036296;28;20356;-77
2022/01/10 05:23:57;;;;;;;;;;;2.60;99.90;;;;;;5036335;28;19917;-77
2022/01/10 05:26:23;;;;;;;;;;;2.60;99.90;;;;;;5034968;28;19924;-77
2022/01/10 05:28:48;;;;;;;;;;;2.60;99.90;;;;;;5035162;28;19921;-76
2022/01/10 05:31:14;;;;;;;;;;;2.50;99.90;;;;;;5036469;28;20398;-77
2022/01/10 05:33:40;;;;;;;;;;;2.50;99.90;;;;;;5036125;28;19913;-77
2022/01/10 05:36:05;;;;;;;;;;;2.50;99.90;;;;;;5036355;28;19917;-77
2022/01/10 05:38:31;;;;;;;;;;;2.40;99.90;;;;;;5035989;28;20364;-77
2022/01/10 05:40:56;;;;;;;;;;;2.50;99.90;;;;;;5034895;28;19913;-77
2022/01/10 05:43:22;;;;;;;;;;;2.50;99.90;;;;;;5034761;28;20364;-77
2022/01/10 05:45:48;;;;;;;;;;;2.40;99.90;;;;;;5035922;28;20339;-77
2022/01/10 05:48:21;;;;;;;;;;;2.40;99.90;;;;;;5035852;28;19964;-78
2022/01/10 05:50:46;;;;;;;;;;;2.40;99.90;;;;;;5035358;28;19928;-77
2022/01/10 05:53:13;;;;;;;;;;;2.40;99.90;;;;;;5035469;28;19917;-77
2022/01/10 05:55:39;;;;;;;;;;;2.40;99.90;;;;;;5035498;28;19952;-75
2022/01/10 05:58:06;;;;;;;;;;;2.40;99.90;;;;;;5034568;28;20331;-76
2022/01/10 06:00:32;;;;;;;;;;;2.40;99.90;;;;;;5035261;28;19919;-79
2022/01/10 06:02:57;;;;;;;;;;;2.40;99.90;;;;;;5035305;28;19913;-79
2022/01/10 06:05:29;;;;;;;;;;;2.30;99.90;;;;;;5034932;28;20408;-80
2022/01/10 06:07:54;;;;;;;;;;;2.60;99.90;;;;;;5034300;28;19920;-79
2022/01/10 06:10:20;;;;;;;;;;;2.50;99.90;;;;;;5035446;28;20276;-78
2022/01/10 06:12:45;;;;;;;;;;;2.40;99.90;;;;;;5035389;28;19924;-76
2022/01/10 06:15:11;;;;;;;;;;;2.80;99.90;;;;;;5034025;28;19963;-77
2022/01/10 06:17:37;;;;;;;;;;;2.70;99.90;;;;;;5033929;28;19913;-76
2022/01/10 06:20:03;;;;;;;;;;;2.50;99.90;;;;;;5030245;28;20008;-75
2022/01/10 06:22:30;;;;;;;;;;;2.40;99.90;;;;;;5030554;28;19913;-76
2022/01/10 06:24:56;;;;;;;;;;;2.30;99.90;;;;;;5032869;28;20412;-75
2022/01/10 06:27:22;;;;;;;;;;;2.40;99.90;;;;;;5031756;28;19913;-76
2022/01/10 06:29:47;;;;;;;;;;;2.40;99.90;;;;;;5033390;28;20409;-76
2022/01/10 06:32:13;;;;;;;;;;;2.40;99.90;;;;;;5033035;28;20458;-75
2022/01/10 06:34:39;;;;;;;;;;;2.30;99.90;;;;;;5031888;28;19917;-76
2022/01/10 06:37:04;;;;;;;;;;;2.40;99.90;;;;;;5033269;28;19913;-75
2022/01/10 06:39:30;;;;;;;;;;;2.40;99.90;;;;;;5033137;28;19917;-76
2022/01/10 06:41:55;;;;;;;;;;;2.30;99.90;;;;;;5031966;28;20375;-76
2022/01/10 06:44:21;;;;;;;;;;;2.30;99.90;;;;;;5032302;28;19939;-75
2022/01/10 06:46:47;;;;;;;;;;;2.20;99.90;;;;;;5032034;28;19918;-76
2022/01/10 06:49:12;;;;;;;;;;;2.20;99.90;;;;;;5031117;28;20021;-76
2022/01/10 06:51:38;;;;;;;;;;;2.30;99.90;;;;;;5047508;28;20279;-76
2022/01/10 06:54:03;;;;;;;;;;;2.20;99.90;;;;;;5032146;28;19920;-75
2022/01/10 06:56:29;;;;;;;;;;;2.20;99.90;;;;;;5032005;28;19913;-76
2022/01/10 06:58:55;;;;;;;;;;;2.20;99.90;;;;;;5031673;28;19913;-76
2022/01/10 07:01:20;;;;;;;;;;;2.20;99.90;;;;;;5031904;28;20524;-76
2022/01/10 07:03:46;;;;;;;;;;;2.20;99.90;;;;;;5029941;28;20284;-76
2022/01/10 07:06:11;;;;;;;;;;;2.20;99.90;;;;;;5031606;28;19929;-73
2022/01/10 07:08:37;;;;;;;;;;;2.20;99.90;;;;;;5030488;28;20253;-75
2022/01/10 07:11:03;;;;;;;;;;;2.20;99.90;;;;;;5028735;28;19917;-75
2022/01/10 07:13:28;;;;;;;;;;;2.10;99.90;;;;;;5030499;28;20471;-75
2022/01/10 07:15:54;;;;;;;;;;;2.10;99.90;;;;;;5032861;28;19920;-75
2022/01/10 07:18:20;;;;;;;;;;;2.40;99.90;;;;;;5033389;28;19919;-75
2022/01/10 07:20:45;;;;;;;;;;;2.30;99.90;;;;;;5031626;28;19920;-75
2022/01/10 07:23:11;;;;;;;;;;;2.20;99.90;;;;;;5034079;28;19917;-76
2022/01/10 07:25:37;;;;;;;;;;;2.20;99.90;;;;;;5033512;28;19953;-72
2022/01/10 07:28:02;;;;;;;;;;;2.30;99.90;;;;;;5032938;28;19921;-75
2022/01/10 07:30:28;;;;;;;;;;;2.20;99.90;;;;;;5033955;28;19929;-74
2022/01/10 07:32:53;;;;;;;;;;;2.20;99.90;;;;;;5032591;28;19921;-75
2022/01/10 07:35:19;;;;;;;;;;;2.20;99.90;;;;;;5034032;28;19976;-75
2022/01/10 07:37:45;;;;;;;;;;;2.20;99.90;;;;;;5032610;28;19920;-76
2022/01/10 07:40:11;;;;;;;;;;;2.20;99.90;;;;;;5033353;28;19913;-72
2022/01/10 07:42:36;;;;;;;;;;;2.20;99.90;;;;;;5033481;28;19917;-74
2022/01/10 07:45:03;;;;;;;;;;;2.20;99.90;;;;;;5033629;28;20478;-76
2022/01/10 07:47:28;;;;;;;;;;;2.10;99.90;;;;;;5032321;28;19913;-75
2022/01/10 07:49:54;;;;;;;;;;;2.20;99.90;;;;;;5033633;28;20447;-75
2022/01/10 07:52:21;;;;;;;;;;;2.30;99.90;;;;;;5032404;28;19913;-76
2022/01/10 07:54:47;;;;;;;;;;;2.40;99.90;;;;;;5033584;28;19947;-76
2022/01/10 07:57:12;;;;;;;;;;;2.40;99.90;;;;;;5031748;28;20383;-76
2022/01/10 07:59:38;;;;;;;;;;;2.90;99.90;;;;;;5033428;28;20008;-78
2022/01/10 08:02:04;;;;;;;;;;;2.90;99.90;;;;;;5033215;28;20003;-72
2022/01/10 08:04:29;;;;;;;;;;;2.90;99.90;;;;;;5033676;28;20272;-73
2022/01/10 08:06:55;;;;;;;;;;;3.30;99.90;;;;;;5033518;28;19923;-75
2022/01/10 08:09:20;;;;;;;;;;;4.00;99.90;;;;;;5033413;28;19922;-78
2022/01/10 08:11:46;;;;;;;;;;;3.90;99.90;;;;;;5033522;28;19917;-73
2022/01/10 08:14:12;;;;;;;;;;;3.50;99.90;;;;;;5033701;28;19921;-80
2022/01/10 08:16:38;;;;;;;;;;;3.50;99.90;;;;;;5032065;28;19913;-79
2022/01/10 08:19:03;;;;;;;;;;;3.60;99.90;;;;;;5033460;28;19917;-79
2022/01/10 08:21:29;;;;;;;;;;;3.70;99.90;;;;;;5033533;28;19924;-74
2022/01/10 08:23:54;;;;;;;;;;;3.90;99.90;;;;;;5033368;28;20404;-72
2022/01/10 08:26:21;;;;;;;;;;;3.90;99.90;;;;;;5032723;28;19918;-75
2022/01/10 08:28:46;;;;;;;;;;;3.80;99.90;;;;;;5030654;28;19913;-78
2022/01/10 08:31:12;;;;;;;;;;;3.80;99.90;;;;;;5036428;28;19924;-75
2022/01/10 08:33:38;;;;;;;;;;;3.70;99.90;;;;;;5036451;28;19999;-79
2022/01/10 08:36:04;;;;;;;;;;;4.20;99.90;;;;;;5037033;28;20026;-79
2022/01/10 08:38:29;;;;;;;;;;;4.20;99.90;;;;;;5036846;28;20004;-78
2022/01/10 08:40:55;;;;;;;;;;;4.10;99.90;;;;;;5036835;28;20262;-73
2022/01/10 08:43:20;;;;;;;;;;;4.30;99.90;;;;;;5036908;28;19920;-79
2022/01/10 08:45:46;;;;;;;;;;;4.50;99.90;;;;;;5036975;28;19983;-79
2022/01/10 08:48:12;;;;;;;;;;;4.30;99.90;;;;;;5036995;28;19951;-79
2022/01/10 08:50:38;;;;;;;;;;;4.60;99.90;;;;;;5035594;28;19921;-74
2022/01/10 08:53:05;;;;;;;;;;;4.70;99.90;;;;;;5036988;28;19919;-79
2022/01/10 08:55:30;;;;;;;;;;;4.30;99.90;;;;;;5036916;28;20364;-78
2022/01/10 08:57:56;;;;;;;;;;;4.60;99.90;;;;;;5036784;28;20015;-77
2022/01/10 09:00:22;;;;;;;;;;;4.50;99.90;;;;;;5035444;28;19999;-79
2022/01/10 09:02:47;;;;;;;;;;;4.20;99.90;;;;;;5035465;28;19913;-79
2022/01/10 09:05:13;;;;;;;;;;;4.10;99.90;;;;;;5036546;28;19927;-79
2022/01/10 09:07:39;;;;;;;;;;;3.70;99.90;;;;;;5036687;28;19913;-79
2022/01/10 09:10:05;;;;;;;;;;;3.60;99.90;;;;;;5036485;28;20335;-79
2022/01/10 09:12:31;;;;;;;;;;;3.60;99.90;;;;;;5036637;28;19924;-77
2022/01/10 09:14:57;;;;;;;;;;;4.10;99.90;;;;;;5036186;28;20384;-78
2022/01/10 09:17:22;;;;;;;;;;;4.60;99.90;;;;;;5036123;28;19913;-79
2022/01/10 09:19:48;;;;;;;;;;;4.70;99.90;;;;;;5035170;28;20257;-80
2022/01/10 09:22:14;;;;;;;;;;;4.60;99.90;;;;;;5036256;28;19917;-80
2022/01/10 09:24:39;;;;;;;;;;;5.00;99.90;;;;;;5036041;28;19913;-80
2022/01/10 09:27:05;;;;;;;;;;;4.30;99.90;;;;;;5035782;28;19944;-80
2022/01/10 09:29:31;;;;;;;;;;;4.10;99.90;;;;;;5034651;28;19964;-80
2022/01/10 09:31:56;;;;;;;;;;;5.00;99.90;;;;;;5034907;28;19944;-78
2022/01/10 09:34:22;;;;;;;;;;;;;;;;;;5035999;28;19940;-80
2022/01/10 09:36:48;;;;;;;;;;;4.20;99.90;;;;;;5035854;28;19920;-76
2022/01/10 09:39:13;;;;;;;;;;;4.20;99.90;;;;;;5034674;28;19947;-80
2022/01/10 09:41:39;;;;;;;;;;;;;;;;;;5033165;28;20356;-81
2022/01/10 09:44:06;;;;;;;;;;;4.00;99.90;;;;;;5034351;28;19958;-80
2022/01/10 09:46:32;;;;;;;;;;;3.90;99.90;;;;;;5034486;28;20056;-79
2022/01/10 09:49:00;;;;;;;;;;;4.00;99.90;;;;;;5035603;28;19944;-79
2022/01/10 09:51:27;;;;;;;;;;;3.90;99.90;;;;;;5035649;28;19917;-80
2022/01/10 09:53:55;;;;;;;;;;;3.90;99.90;;;;;;5035455;28;19920;-74
2022/01/10 09:56:21;;;;;;;;;;;4.00;99.90;;;;;;5035467;28;19913;-76
2022/01/10 09:58:47;;;;;;;;;;;4.00;99.90;;;;;;5035405;28;19972;-79
2022/01/10 10:01:14;;;;;;;;;;;4.20;99.90;;;;;;5034015;28;19949;-80
2022/01/10 10:03:42;;;;;;;;;;;4.00;99.90;;;;;;5035351;28;19920;-73
2022/01/10 10:06:09;;;;;;;;;;;4.00;99.90;;;;;;5035404;28;20399;-72
2022/01/10 10:08:37;;;;;;;;;;;4.00;99.90;;;;;;5034204;28;19913;-80
2022/01/10 10:11:03;;;;;;;;;;;4.10;99.90;;;;;;5033920;28;19925;-75
2022/01/10 10:13:29;;;;;;;;;;;4.10;99.90;;;;;;5034354;28;19917;-78
2022/01/10 10:15:55;;;;;;;;;;;4.00;99.90;;;;;;5034040;28;20380;-80
2022/01/10 10:18:21;;;;;;;;;;;4.10;99.90;;;;;;5033953;28;20034;-80
2022/01/10 10:20:46;;;;;;;;;;;4.10;99.90;;;;;;5034027;28;19949;-72
2022/01/10 10:23:15;;;;;;;;;;;3.90;99.90;;;;;;5035219;28;19920;-79
2022/01/10 10:25:48;;;;;;;;;;;3.90;99.90;;;;;;5034399;28;20296;-79
2022/01/10 10:28:14;;;;;;;;;;;4.00;99.90;;;;;;5033600;28;20288;-79
2022/01/10 10:30:40;;;;;;;;;;;4.00;99.90;;;;;;5034739;28;19921;-78
2022/01/10 10:33:16;;;;;;;;;;;4.00;99.90;;;;;;5034710;28;20051;-79
2022/01/10 10:35:42;;;;;;;;;;;3.90;99.90;;;;;;5034663;28;19913;-80
2022/01/10 10:38:08;;;;;;;;;;;4.00;99.90;;;;;;5033448;28;19913;-80
2022/01/10 10:40:41;;;;;;;;;;;4.00;99.90;;;;;;5034595;28;19917;-80
2022/01/10 10:43:07;;;;;;;;;;;4.00;99.90;;;;;;5033330;28;20357;-79
2022/01/10 10:45:33;;;;;;;;;;;4.10;99.90;;;;;;5034427;28;19909;-79
2022/01/10 10:48:04;;;;;;;;;;;4.10;99.90;;;;;;5033216;28;20706;-80
2022/01/10 10:50:33;;;;;;;;;;;4.30;99.90;;;;;;5034673;28;20410;-73
2022/01/10 10:53:02;;;;;;;;;;;4.50;99.90;;;;;;5033189;28;19924;-80
2022/01/10 10:55:28;;;;;;;;;;;4.60;99.90;;;;;;5034953;28;20357;-80
2022/01/10 10:57:54;;;;;;;;;;;4.20;99.90;;;;;;5034589;28;20016;-80
2022/01/10 11:00:20;;;;;;;;;;;4.50;99.90;;;;;;5034356;28;19917;-72
2022/01/10 11:02:46;;;;;;;;;;;4.30;99.90;;;;;;5034301;28;19936;-78
2022/01/10 11:05:12;;;;;;;;;;;4.30;99.90;;;;;;5034563;28;20328;-79
2022/01/10 11:07:38;;;;;;;;;;;4.30;99.90;;;;;;5034333;28;19952;-80
2022/01/10 11:10:05;;;;;;;;;;;4.30;99.90;;;;;;5034146;28;19969;-76
2022/01/10 11:12:33;;;;;;;;;;;4.50;99.90;;;;;;5032358;28;20398;-79
2022/01/10 11:14:59;;;;;;;;;;;4.40;99.90;;;;;;5031324;28;19913;-80
2022/01/10 11:17:25;;;;;;;;;;;4.60;99.90;;;;;;5032368;28;19963;-79
2022/01/10 11:20:10;;;;;;;;;;;4.60;99.90;;;;;;5031940;28;19920;-79
2022/01/10 11:22:37;;;;;;;;;;;4.60;99.90;;;;;;5033508;28;19921;-79
2022/01/10 11:25:03;;;;;;;;;;;4.50;99.90;;;;;;5033887;28;19996;-79
2022/01/10 11:27:28;;;;;;;;;;;4.50;99.90;;;;;;5034005;28;19913;-80
2022/01/10 11:29:56;;;;;;;;;;;4.60;99.90;;;;;;5033987;28;20502;-80
2022/01/10 11:32:50;;;;;;;;;;;4.70;99.90;;;;;;5033464;28;20219;-80
2022/01/10 11:35:16;;;;;;;;;;;4.70;99.90;;;;;;5031042;28;19917;-76
2022/01/10 11:37:42;;;;;;;;;;;4.60;99.90;;;;;;5033727;28;19940;-79
2022/01/10 11:40:08;;;;;;;;;;;4.80;99.90;;;;;;5033701;28;19913;-79
2022/01/10 11:42:42;;;;;;;;;;;4.90;99.90;;;;;;5032427;28;19917;-80
2022/01/10 11:45:09;;;;;;;;;;;5.00;99.90;;;;;;5033797;28;19913;-80
2022/01/10 11:47:53;;;;;;;;;;;4.80;99.90;;;;;;5033792;28;19917;-80
2022/01/10 11:50:26;;;;;;;;;;;4.80;99.90;;;;;;5033538;28;20409;-80
2022/01/10 11:52:55;;;;;;;;;;;4.90;99.90;;;;;;5033425;28;19914;-72
2022/01/10 11:55:38;;;;;;;;;;;5.20;99.90;;;;;;5033748;28;19949;-80
2022/01/10 11:58:14;;;;;;;;;;;5.10;99.90;;;;;;5033679;28;19913;-80
2022/01/10 12:00:40;;;;;;;;;;;5.40;99.90;;;;;;5033407;28;19919;-80
2022/01/10 12:03:06;;;;;;;;;;;5.20;99.90;;;;;;5033385;28;19913;-80
2022/01/10 12:05:31;;;;;;;;;;;5.10;99.90;;;;;;5032647;28;19920;-79
2022/01/10 12:07:57;;;;;;;;;;;4.90;99.90;;;;;;5033376;28;19917;-75
2022/01/10 12:10:22;;;;;;;;;;;5.10;99.90;;;;;;5033408;28;19928;-72
2022/01/10 12:12:53;;;;;;;;;;;5.30;99.90;;;;;;5033386;28;19913;-80
2022/01/10 12:15:18;;;;;;;;;;;5.30;99.90;;;;;;5033130;28;19913;-80
2022/01/10 12:17:44;;;;;;;;;;;5.10;99.90;;;;;;5033063;28;20048;-80
2022/01/10 12:20:11;;;;;;;;;;;5.10;99.90;;;;;;5032290;28;19913;-81
2022/01/10 12:22:38;;;;;;;;;;;5.20;99.90;;;;;;5033298;28;19924;-76
2022/01/10 12:25:05;;;;;;;;;;;5.00;99.90;;;;;;5032850;28;19917;-81
2022/01/10 12:27:31;;;;;;;;;;;5.30;99.90;;;;;;5033177;28;19941;-80
2022/01/10 12:29:57;;;;;;;;;;;5.30;99.90;;;;;;5032912;28;19947;-80
2022/01/10 12:32:23;;;;;;;;;;;5.00;99.90;;;;;;5032827;28;19917;-77
2022/01/10 12:34:48;;;;;;;;;;;5.10;99.90;;;;;;5033401;28;19921;-78
2022/01/10 12:37:14;;;;;;;;;;;5.00;99.90;;;;;;5033097;28;20254;-79
2022/01/10 12:39:40;;;;;;;;;;;5.10;99.90;;;;;;5033281;28;19913;-80
2022/01/10 12:42:05;;;;;;;;;;;5.20;99.90;;;;;;5033245;28;20434;-80
2022/01/10 12:44:31;;;;;;;;;;;5.00;99.90;;;;;;5033245;28;19967;-80
2022/01/10 12:46:57;;;;;;;;;;;5.20;99.90;;;;;;5033151;28;19917;-79
2022/01/10 12:49:23;;;;;;;;;;;5.20;99.90;;;;;;5032932;28;19921;-81
2022/01/10 12:51:53;;;;;;;;;;;5.00;99.90;;;;;;5032837;28;19921;-75
2022/01/10 12:54:19;;;;;;;;;;;4.70;99.90;;;;;;5033025;28;19924;-74
2022/01/10 12:56:45;;;;;;;;;;;;;;;;;;5033066;28;20313;-80
2022/01/10 12:59:12;;;;;;;;;;;;;;;;;;5032861;28;19913;-80
2022/01/10 13:01:38;;;;;;;;;;;5.30;99.90;;;;;;5031499;28;19914;-81
2022/01/10 13:04:04;;;;;;;;;;;5.30;99.90;;;;;;5031434;28;19990;-80
2022/01/10 13:06:35;;;;;;;;;;;5.10;99.90;;;;;;5032828;28;20437;-79
2022/01/10 13:09:01;;;;;;;;;;;5.20;99.90;;;;;;5032690;28;19917;-81
2022/01/10 13:11:32;;;;;;;;;;;5.00;99.90;;;;;;5032749;28;19921;-80
2022/01/10 13:14:16;;;;;;;;;;;5.00;99.90;;;;;;5032601;28;19913;-79
2022/01/10 13:16:43;;;;;;;;;;;5.00;99.90;;;;;;5035446;28;19913;-80
2022/01/10 13:19:13;;;;;;;;;;;5.10;99.90;;;;;;5036199;28;19960;-80
2022/01/10 13:21:43;;;;;;;;;;;5.20;99.90;;;;;;5034815;28;19920;-80
2022/01/10 13:24:10;;;;;;;;;;;4.90;99.90;;;;;;5035808;28;20379;-80
2022/01/10 13:26:51;;;;;;;;;;;5.30;99.90;;;;;;5035149;28;19917;-78
2022/01/10 13:29:28;;;;;;;;;;;5.30;99.90;;;;;;5036025;28;19956;-80
2022/01/10 13:31:54;;;;;;;;;;;5.20;99.90;;;;;;5036260;28;19913;-80
2022/01/10 13:34:26;;;;;;;;;;;5.10;99.90;;;;;;5036247;28;19971;-76
2022/01/10 13:36:52;;;;;;;;;;;4.90;99.90;;;;;;5034604;28;19940;-80
2022/01/10 13:39:18;;;;;;;;;;;4.90;99.90;;;;;;5035762;28;19913;-80
2022/01/10 13:41:57;;;;;;;;;;;5.00;99.90;;;;;;5034228;28;19959;-80
2022/01/10 13:44:23;;;;;;;;;;;5.00;99.90;;;;;;5034787;28;19909;-80
2022/01/10 13:46:58;;;;;;;;;;;4.90;99.90;;;;;;5034918;28;19920;-81
2022/01/10 13:49:28;;;;;;;;;;;5.00;99.90;;;;;;5034740;28;19917;-80
2022/01/10 13:52:10;;;;;;;;;;;5.00;99.90;;;;;;5031162;28;19917;-81
2022/01/10 13:54:35;;;;;;;;;;;5.00;99.90;;;;;;5034384;28;19971;-77
2022/01/10 13:57:22;;;;;;;;;;;4.90;99.90;;;;;;5034523;28;20003;-73
2022/01/10 13:59:48;;;;;;;;;;;4.90;99.90;;;;;;5034219;28;19920;-80
2022/01/10 14:02:16;;;;;;;;;;;5.00;99.90;;;;;;5035564;28;19959;-80
2022/01/10 14:04:44;;;;;;;;;;;5.00;99.90;;;;;;5034265;28;19921;-78
2022/01/10 14:07:16;;;;;;;;;;;4.90;99.90;;;;;;5035476;28;20353;-81
2022/01/10 14:09:43;;;;;;;;;;;4.80;99.90;;;;;;5035572;28;19924;-80
2022/01/10 14:12:10;;;;;;;;;;;4.90;99.90;;;;;;5035750;28;19917;-80
2022/01/10 14:14:36;;;;;;;;;;;5.10;99.90;;;;;;5034103;28;19918;-80
2022/01/10 14:17:02;;;;;;;;;;;5.10;99.90;;;;;;5035017;28;20398;-74
2022/01/10 14:19:27;;;;;;;;;;;5.00;99.90;;;;;;5034238;28;20284;-80
2022/01/10 14:21:53;;;;;;;;;;;5.00;99.90;;;;;;5035330;28;19913;-80
2022/01/10 14:24:21;;;;;;;;;;;4.90;99.90;;;;;;5035130;28;19956;-80
2022/01/10 14:26:47;;;;;;;;;;;4.90;99.90;;;;;;5033429;28;19917;-74
2022/01/10 14:29:13;;;;;;;;;;;4.90;99.90;;;;;;5034768;28;19924;-80
2022/01/10 14:31:39;;;;;;;;;;;4.90;99.90;;;;;;5033575;28;19913;-80
2022/01/10 14:34:05;;;;;;;;;;;4.90;99.90;;;;;;5034994;28;20364;-80
2022/01/10 14:36:31;;;;;;;;;;;4.90;99.90;;;;;;5034911;28;20013;-82
2022/01/10 14:38:57;;;;;;;;;;;5.00;99.90;;;;;;5034884;28;19921;-78
2022/01/10 14:41:24;;;;;;;;;;;4.90;99.90;;;;;;5033494;28;19924;-73